sensor_id;sensor_type;location;lat;lon;timestamp;pressure;altitude;pressure_sealevel;temperature;humidity
38912;BME280;28444;48.056;14.408;2023-03-18T00:00:14;97149.44;;;5.14;53.70
38912;BME280;28444;48.056;14.408;2023-03-18T00:02:43;97160.44;;;5.09;54.03
38912;BME280;28444;48.056;14.408;2023-03-18T00:05:11;97155.88;;;5.03;55.53
38912;BME280;28444;48.056;14.408;2023-03-18T00:07:38;97155.69;;;5.01;55.28
38912;BME280;28444;48.056;14.408;2023-03-18T00:10:07;97157.13;;;5.02;55.22
38912;BME280;28444;48.056;14.408;2023-03-18T00:12:36;97167.97;;;5.02;55.09
38912;BME280;28444;48.056;14.408;2023-03-18T00:15:07;97165.94;;;4.95;54.64
38912;BME280;28444;48.056;14.408;2023-03-18T00:17:34;97174.97;;;4.90;54.53
38912;BME280;28444;48.056;14.408;2023-03-18T00:20:01;97173.69;;;4.91;54.58
38912;BME280;28444;48.056;14.408;2023-03-18T00:22:33;97181.16;;;4.98;55.27
38912;BME280;28444;48.056;14.408;2023-03-18T00:24:59;97186.53;;;4.91;54.52
38912;BME280;28444;48.056;14.408;2023-03-18T00:27:27;97187.91;;;4.84;54.98
38912;BME280;28444;48.056;14.408;2023-03-18T00:29:54;97192.78;;;4.86;55.02
38912;BME280;28444;48.056;14.408;2023-03-18T00:32:21;97199.09;;;4.80;54.54
38912;BME280;28444;48.056;14.408;2023-03-18T00:34:48;97203.41;;;4.76;55.12
38912;BME280;28444;48.056;14.408;2023-03-18T00:37:16;97205.03;;;4.79;55.03
38912;BME280;28444;48.056;14.408;2023-03-18T00:39:57;97205.78;;;4.79;55.41
38912;BME280;28444;48.056;14.408;2023-03-18T00:42:25;97207.63;;;4.85;55.75
38912;BME280;28444;48.056;14.408;2023-03-18T00:44:51;97217.53;;;4.82;55.29
38912;BME280;28444;48.056;14.408;2023-03-18T00:47:18;97216.03;;;4.73;54.99
38912;BME280;28444;48.056;14.408;2023-03-18T00:49:46;97216.53;;;4.72;54.59
38912;BME280;28444;48.056;14.408;2023-03-18T00:52:13;97222.44;;;4.63;54.69
38912;BME280;28444;48.056;14.408;2023-03-18T00:54:40;97223.81;;;4.56;55.40
38912;BME280;28444;48.056;14.408;2023-03-18T00:57:07;97230.50;;;4.55;55.77
38912;BME280;28444;48.056;14.408;2023-03-18T00:59:33;97229.72;;;4.47;55.70
38912;BME280;28444;48.056;14.408;2023-03-18T01:02:00;97228.56;;;4.42;55.44
38912;BME280;28444;48.056;14.408;2023-03-18T01:04:27;97239.53;;;4.37;56.03
38912;BME280;28444;48.056;14.408;2023-03-18T01:06:54;97243.41;;;4.28;58.39
38912;BME280;28444;48.056;14.408;2023-03-18T01:09:20;97238.66;;;4.21;62.08
38912;BME280;28444;48.056;14.408;2023-03-18T01:11:49;97245.78;;;4.10;62.59
38912;BME280;28444;48.056;14.408;2023-03-18T01:14:16;97262.66;;;4.03;63.76
38912;BME280;28444;48.056;14.408;2023-03-18T01:16:42;97261.50;;;3.99;64.37
38912;BME280;28444;48.056;14.408;2023-03-18T01:19:10;97265.72;;;3.86;65.90
38912;BME280;28444;48.056;14.408;2023-03-18T01:21:36;97276.84;;;3.83;66.01
38912;BME280;28444;48.056;14.408;2023-03-18T01:24:03;97265.84;;;3.68;65.67
38912;BME280;28444;48.056;14.408;2023-03-18T01:26:30;97270.94;;;3.58;65.81
38912;BME280;28444;48.056;14.408;2023-03-18T01:28:57;97268.97;;;3.58;65.79
38912;BME280;28444;48.056;14.408;2023-03-18T01:31:24;97266.88;;;3.51;66.79
38912;BME280;28444;48.056;14.408;2023-03-18T01:33:51;97271.38;;;3.49;67.32
38912;BME280;28444;48.056;14.408;2023-03-18T01:36:18;97272.41;;;3.46;67.71
38912;BME280;28444;48.056;14.408;2023-03-18T01:38:45;97271.06;;;3.39;68.26
38912;BME280;28444;48.056;14.408;2023-03-18T01:41:11;97279.56;;;3.30;67.95
38912;BME280;28444;48.056;14.408;2023-03-18T01:43:41;97280.31;;;3.30;68.70
38912;BME280;28444;48.056;14.408;2023-03-18T01:46:32;97274.59;;;3.21;69.15
38912;BME280;28444;48.056;14.408;2023-03-18T01:49:00;97271.25;;;3.14;70.18
38912;BME280;28444;48.056;14.408;2023-03-18T01:51:28;97289.44;;;3.14;69.95
38912;BME280;28444;48.056;14.408;2023-03-18T01:53:56;97285.06;;;3.11;69.77
38912;BME280;28444;48.056;14.408;2023-03-18T01:56:24;97283.31;;;3.13;69.98
38912;BME280;28444;48.056;14.408;2023-03-18T01:58:53;97286.53;;;3.12;69.49
38912;BME280;28444;48.056;14.408;2023-03-18T02:01:25;97290.28;;;3.09;70.21
38912;BME280;28444;48.056;14.408;2023-03-18T02:03:54;97291.00;;;3.09;70.25
38912;BME280;28444;48.056;14.408;2023-03-18T02:06:22;97293.06;;;3.03;71.51
38912;BME280;28444;48.056;14.408;2023-03-18T02:08:49;97300.34;;;3.08;70.90
38912;BME280;28444;48.056;14.408;2023-03-18T02:11:16;97304.91;;;3.00;70.85
38912;BME280;28444;48.056;14.408;2023-03-18T02:13:44;97301.88;;;2.91;71.67
38912;BME280;28444;48.056;14.408;2023-03-18T02:16:16;97308.00;;;2.91;71.16
38912;BME280;28444;48.056;14.408;2023-03-18T02:18:54;97308.44;;;2.95;70.92
38912;BME280;28444;48.056;14.408;2023-03-18T02:21:58;97309.34;;;2.98;70.22
38912;BME280;28444;48.056;14.408;2023-03-18T02:24:40;97312.75;;;2.85;70.85
38912;BME280;28444;48.056;14.408;2023-03-18T02:27:28;97320.75;;;2.77;70.85
38912;BME280;28444;48.056;14.408;2023-03-18T02:30:00;97317.09;;;2.75;71.15
38912;BME280;28444;48.056;14.408;2023-03-18T02:32:30;97317.34;;;2.58;72.13
38912;BME280;28444;48.056;14.408;2023-03-18T02:34:59;97321.72;;;2.61;72.18
38912;BME280;28444;48.056;14.408;2023-03-18T02:37:27;97319.97;;;2.63;71.07
38912;BME280;28444;48.056;14.408;2023-03-18T02:39:54;97328.22;;;2.52;71.02
38912;BME280;28444;48.056;14.408;2023-03-18T02:42:30;97325.47;;;2.58;70.50
38912;BME280;28444;48.056;14.408;2023-03-18T02:44:57;97327.94;;;2.56;71.25
38912;BME280;28444;48.056;14.408;2023-03-18T02:47:27;97321.41;;;2.64;70.55
38912;BME280;28444;48.056;14.408;2023-03-18T02:49:54;97331.59;;;2.58;71.34
38912;BME280;28444;48.056;14.408;2023-03-18T02:52:20;97319.59;;;2.54;71.67
38912;BME280;28444;48.056;14.408;2023-03-18T02:54:47;97328.94;;;2.53;72.42
38912;BME280;28444;48.056;14.408;2023-03-18T02:57:14;97323.19;;;2.43;72.17
38912;BME280;28444;48.056;14.408;2023-03-18T02:59:41;97327.09;;;2.29;72.38
38912;BME280;28444;48.056;14.408;2023-03-18T03:02:07;97324.53;;;2.36;72.65
38912;BME280;28444;48.056;14.408;2023-03-18T03:04:34;97334.44;;;2.28;72.89
38912;BME280;28444;48.056;14.408;2023-03-18T03:07:01;97330.06;;;2.25;72.16
38912;BME280;28444;48.056;14.408;2023-03-18T03:09:27;97332.97;;;2.08;73.07
38912;BME280;28444;48.056;14.408;2023-03-18T03:11:54;97339.63;;;2.07;72.89
38912;BME280;28444;48.056;14.408;2023-03-18T03:14:21;97331.75;;;2.09;72.78
38912;BME280;28444;48.056;14.408;2023-03-18T03:16:47;97331.69;;;2.15;73.37
38912;BME280;28444;48.056;14.408;2023-03-18T03:19:14;97341.94;;;2.16;73.03
38912;BME280;28444;48.056;14.408;2023-03-18T03:21:42;97331.00;;;2.09;73.64
38912;BME280;28444;48.056;14.408;2023-03-18T03:24:08;97342.97;;;2.13;73.41
38912;BME280;28444;48.056;14.408;2023-03-18T03:26:35;97336.41;;;2.09;72.76
38912;BME280;28444;48.056;14.408;2023-03-18T03:29:03;97343.91;;;2.16;72.37
38912;BME280;28444;48.056;14.408;2023-03-18T03:31:30;97338.28;;;2.14;72.00
38912;BME280;28444;48.056;14.408;2023-03-18T03:33:58;97344.44;;;2.14;72.09
38912;BME280;28444;48.056;14.408;2023-03-18T03:36:25;97344.16;;;2.18;72.68
38912;BME280;28444;48.056;14.408;2023-03-18T03:38:52;97354.28;;;2.12;73.59
38912;BME280;28444;48.056;14.408;2023-03-18T03:41:19;97354.19;;;2.17;73.01
38912;BME280;28444;48.056;14.408;2023-03-18T03:43:46;97360.41;;;2.12;73.64
38912;BME280;28444;48.056;14.408;2023-03-18T03:46:13;97359.16;;;2.13;73.86
38912;BME280;28444;48.056;14.408;2023-03-18T03:48:40;97365.84;;;2.07;75.19
38912;BME280;28444;48.056;14.408;2023-03-18T03:51:07;97359.09;;;2.00;76.27
38912;BME280;28444;48.056;14.408;2023-03-18T03:53:34;97368.63;;;2.01;76.85
38912;BME280;28444;48.056;14.408;2023-03-18T03:56:02;97369.78;;;2.06;76.98
38912;BME280;28444;48.056;14.408;2023-03-18T03:58:29;97371.03;;;2.05;76.72
38912;BME280;28444;48.056;14.408;2023-03-18T04:00:56;97380.66;;;2.00;77.16
38912;BME280;28444;48.056;14.408;2023-03-18T04:03:22;97381.88;;;1.99;77.48
38912;BME280;28444;48.056;14.408;2023-03-18T04:05:49;97378.75;;;1.95;77.99
38912;BME280;28444;48.056;14.408;2023-03-18T04:08:16;97378.47;;;1.99;77.63
38912;BME280;28444;48.056;14.408;2023-03-18T04:10:43;97381.69;;;1.97;77.87
38912;BME280;28444;48.056;14.408;2023-03-18T04:13:10;97382.91;;;1.96;78.39
38912;BME280;28444;48.056;14.408;2023-03-18T04:15:37;97382.13;;;2.01;78.56
38912;BME280;28444;48.056;14.408;2023-03-18T04:18:03;97380.88;;;2.02;77.98
38912;BME280;28444;48.056;14.408;2023-03-18T04:20:34;97384.28;;;2.03;78.62
38912;BME280;28444;48.056;14.408;2023-03-18T04:23:01;97397.13;;;1.97;80.36
38912;BME280;28444;48.056;14.408;2023-03-18T04:25:28;97393.91;;;1.98;80.84
38912;BME280;28444;48.056;14.408;2023-03-18T04:27:56;97398.31;;;2.01;81.15
38912;BME280;28444;48.056;14.408;2023-03-18T04:30:23;97395.81;;;2.03;82.05
38912;BME280;28444;48.056;14.408;2023-03-18T04:32:52;97399.53;;;2.00;81.69
38912;BME280;28444;48.056;14.408;2023-03-18T04:35:21;97405.22;;;1.97;82.11
38912;BME280;28444;48.056;14.408;2023-03-18T04:37:48;97401.00;;;2.01;82.18
38912;BME280;28444;48.056;14.408;2023-03-18T04:40:15;97408.66;;;1.97;82.52
38912;BME280;28444;48.056;14.408;2023-03-18T04:42:43;97403.75;;;1.96;82.13
38912;BME280;28444;48.056;14.408;2023-03-18T04:45:14;97410.63;;;1.97;83.15
38912;BME280;28444;48.056;14.408;2023-03-18T04:47:41;97405.22;;;1.97;82.73
38912;BME280;28444;48.056;14.408;2023-03-18T04:50:09;97407.41;;;1.98;83.86
38912;BME280;28444;48.056;14.408;2023-03-18T04:52:38;97411.22;;;2.08;82.75
38912;BME280;28444;48.056;14.408;2023-03-18T04:55:05;97406.25;;;2.12;82.17
38912;BME280;28444;48.056;14.408;2023-03-18T04:57:33;97417.34;;;2.09;82.85
38912;BME280;28444;48.056;14.408;2023-03-18T05:00:07;97414.41;;;2.07;83.06
38912;BME280;28444;48.056;14.408;2023-03-18T05:02:38;97415.84;;;1.89;83.48
38912;BME280;28444;48.056;14.408;2023-03-18T05:05:05;97419.31;;;1.84;83.15
38912;BME280;28444;48.056;14.408;2023-03-18T05:07:31;97421.56;;;1.80;83.46
38912;BME280;28444;48.056;14.408;2023-03-18T05:09:58;97429.66;;;1.80;82.64
38912;BME280;28444;48.056;14.408;2023-03-18T05:12:25;97426.06;;;1.72;81.79
38912;BME280;28444;48.056;14.408;2023-03-18T05:14:52;97429.59;;;1.61;82.17
38912;BME280;28444;48.056;14.408;2023-03-18T05:17:19;97428.06;;;1.65;81.48
38912;BME280;28444;48.056;14.408;2023-03-18T05:19:47;97436.72;;;1.58;82.31
38912;BME280;28444;48.056;14.408;2023-03-18T05:22:16;97436.50;;;1.56;81.65
38912;BME280;28444;48.056;14.408;2023-03-18T05:24:43;97443.34;;;1.57;81.80
38912;BME280;28444;48.056;14.408;2023-03-18T05:27:16;97435.81;;;1.50;81.57
38912;BME280;28444;48.056;14.408;2023-03-18T05:29:44;97446.16;;;1.46;82.29
38912;BME280;28444;48.056;14.408;2023-03-18T05:32:11;97441.94;;;1.51;81.84
38912;BME280;28444;48.056;14.408;2023-03-18T05:34:40;97443.19;;;1.50;82.12
38912;BME280;28444;48.056;14.408;2023-03-18T05:37:09;97439.47;;;1.53;82.08
38912;BME280;28444;48.056;14.408;2023-03-18T05:39:36;97438.00;;;1.52;84.17
38912;BME280;28444;48.056;14.408;2023-03-18T05:42:03;97441.38;;;1.58;84.14
38912;BME280;28444;48.056;14.408;2023-03-18T05:44:31;97440.59;;;1.63;84.21
38912;BME280;28444;48.056;14.408;2023-03-18T05:46:58;97445.16;;;1.74;83.77
38912;BME280;28444;48.056;14.408;2023-03-18T05:49:25;97444.38;;;1.79;82.88
38912;BME280;28444;48.056;14.408;2023-03-18T05:51:52;97446.84;;;1.77;82.78
38912;BME280;28444;48.056;14.408;2023-03-18T05:54:20;97441.72;;;1.73;83.56
38912;BME280;28444;48.056;14.408;2023-03-18T05:56:47;97447.94;;;1.62;83.49
38912;BME280;28444;48.056;14.408;2023-03-18T05:59:15;97445.88;;;1.50;84.95
38912;BME280;28444;48.056;14.408;2023-03-18T06:01:42;97443.34;;;1.57;83.69
38912;BME280;28444;48.056;14.408;2023-03-18T06:04:12;97446.25;;;1.59;84.41
38912;BME280;28444;48.056;14.408;2023-03-18T06:06:39;97449.03;;;1.54;84.66
38912;BME280;28444;48.056;14.408;2023-03-18T06:09:11;97451.47;;;1.52;85.00
38912;BME280;28444;48.056;14.408;2023-03-18T06:11:38;97454.91;;;1.52;84.66
38912;BME280;28444;48.056;14.408;2023-03-18T06:14:07;97460.50;;;1.60;84.54
38912;BME280;28444;48.056;14.408;2023-03-18T06:16:34;97459.75;;;1.59;83.88
38912;BME280;28444;48.056;14.408;2023-03-18T06:19:02;97458.25;;;1.64;84.30
38912;BME280;28444;48.056;14.408;2023-03-18T06:21:30;97452.63;;;1.62;84.26
38912;BME280;28444;48.056;14.408;2023-03-18T06:24:00;97455.44;;;1.75;83.65
38912;BME280;28444;48.056;14.408;2023-03-18T06:26:27;97452.06;;;1.69;83.16
38912;BME280;28444;48.056;14.408;2023-03-18T06:28:55;97456.91;;;1.76;83.79
38912;BME280;28444;48.056;14.408;2023-03-18T06:31:24;97459.56;;;1.82;83.02
38912;BME280;28444;48.056;14.408;2023-03-18T06:33:51;97465.44;;;1.80;82.84
38912;BME280;28444;48.056;14.408;2023-03-18T06:36:19;97468.59;;;1.84;83.17
38912;BME280;28444;48.056;14.408;2023-03-18T06:38:46;97467.53;;;1.93;82.96
38912;BME280;28444;48.056;14.408;2023-03-18T06:41:15;97467.25;;;1.97;83.31
38912;BME280;28444;48.056;14.408;2023-03-18T06:43:42;97464.59;;;1.91;83.20
38912;BME280;28444;48.056;14.408;2023-03-18T06:46:09;97474.84;;;1.98;83.05
38912;BME280;28444;48.056;14.408;2023-03-18T06:48:36;97466.13;;;2.11;82.70
38912;BME280;28444;48.056;14.408;2023-03-18T06:51:06;97464.38;;;2.13;83.38
38912;BME280;28444;48.056;14.408;2023-03-18T06:53:33;97468.94;;;2.24;83.31
38912;BME280;28444;48.056;14.408;2023-03-18T06:56:02;97472.97;;;2.36;83.83
38912;BME280;28444;48.056;14.408;2023-03-18T06:58:29;97470.94;;;2.42;84.06
38912;BME280;28444;48.056;14.408;2023-03-18T07:00:57;97475.59;;;2.42;84.68
38912;BME280;28444;48.056;14.408;2023-03-18T07:03:24;97476.66;;;2.58;83.67
38912;BME280;28444;48.056;14.408;2023-03-18T07:05:51;97477.25;;;2.70;84.07
38912;BME280;28444;48.056;14.408;2023-03-18T07:08:18;97479.66;;;2.73;84.14
38912;BME280;28444;48.056;14.408;2023-03-18T07:10:45;97483.22;;;2.81;83.71
38912;BME280;28444;48.056;14.408;2023-03-18T07:13:11;97473.94;;;2.96;82.23
38912;BME280;28444;48.056;14.408;2023-03-18T07:15:38;97475.41;;;2.97;82.03
38912;BME280;28444;48.056;14.408;2023-03-18T07:18:05;97477.22;;;3.07;81.60
38912;BME280;28444;48.056;14.408;2023-03-18T07:20:32;97476.75;;;3.22;80.62
38912;BME280;28444;48.056;14.408;2023-03-18T07:22:59;97483.34;;;3.27;78.99
38912;BME280;28444;48.056;14.408;2023-03-18T07:25:27;97486.69;;;3.33;78.06
38912;BME280;28444;48.056;14.408;2023-03-18T07:27:55;97487.34;;;3.39;77.32
38912;BME280;28444;48.056;14.408;2023-03-18T07:30:22;97497.44;;;3.52;76.86
38912;BME280;28444;48.056;14.408;2023-03-18T07:32:48;97488.31;;;3.55;76.73
38912;BME280;28444;48.056;14.408;2023-03-18T07:35:16;97490.84;;;3.66;76.49
38912;BME280;28444;48.056;14.408;2023-03-18T07:37:43;97490.75;;;3.72;76.38
38912;BME280;28444;48.056;14.408;2023-03-18T07:40:11;97496.94;;;3.85;75.79
38912;BME280;28444;48.056;14.408;2023-03-18T07:42:38;97493.19;;;3.89;75.22
38912;BME280;28444;48.056;14.408;2023-03-18T07:45:06;97490.69;;;3.91;75.36
38912;BME280;28444;48.056;14.408;2023-03-18T07:47:33;97492.78;;;3.98;75.06
38912;BME280;28444;48.056;14.408;2023-03-18T07:50:00;97495.41;;;4.03;73.85
38912;BME280;28444;48.056;14.408;2023-03-18T07:52:27;97490.50;;;4.15;73.42
38912;BME280;28444;48.056;14.408;2023-03-18T07:54:55;97496.22;;;4.12;73.24
38912;BME280;28444;48.056;14.408;2023-03-18T07:57:21;97494.66;;;4.16;73.21
38912;BME280;28444;48.056;14.408;2023-03-18T07:59:49;97498.00;;;4.22;73.23
38912;BME280;28444;48.056;14.408;2023-03-18T08:02:16;97501.22;;;4.34;72.37
38912;BME280;28444;48.056;14.408;2023-03-18T08:04:43;97499.25;;;4.34;72.70
38912;BME280;28444;48.056;14.408;2023-03-18T08:07:12;97500.91;;;4.38;72.47
38912;BME280;28444;48.056;14.408;2023-03-18T08:09:39;97510.00;;;4.40;71.37
38912;BME280;28444;48.056;14.408;2023-03-18T08:12:06;97505.00;;;4.44;70.68
38912;BME280;28444;48.056;14.408;2023-03-18T08:14:33;97511.22;;;4.52;71.39
38912;BME280;28444;48.056;14.408;2023-03-18T08:17:01;97502.59;;;4.54;71.10
38912;BME280;28444;48.056;14.408;2023-03-18T08:19:28;97510.69;;;4.67;70.93
38912;BME280;28444;48.056;14.408;2023-03-18T08:21:54;97509.56;;;4.76;70.55
38912;BME280;28444;48.056;14.408;2023-03-18T08:24:23;97506.59;;;4.87;70.43
38912;BME280;28444;48.056;14.408;2023-03-18T08:26:50;97503.13;;;5.00;69.98
38912;BME280;28444;48.056;14.408;2023-03-18T08:29:17;97505.16;;;5.20;68.94
38912;BME280;28444;48.056;14.408;2023-03-18T08:31:44;97504.13;;;5.23;68.91
38912;BME280;28444;48.056;14.408;2023-03-18T08:34:10;97503.03;;;5.26;68.84
38912;BME280;28444;48.056;14.408;2023-03-18T08:36:39;97502.59;;;5.36;68.88
38912;BME280;28444;48.056;14.408;2023-03-18T08:39:06;97507.28;;;5.35;67.84
38912;BME280;28444;48.056;14.408;2023-03-18T08:41:34;97507.59;;;5.45;68.35
38912;BME280;28444;48.056;14.408;2023-03-18T08:44:02;97499.19;;;5.56;67.67
38912;BME280;28444;48.056;14.408;2023-03-18T08:46:31;97500.91;;;5.67;67.80
38912;BME280;28444;48.056;14.408;2023-03-18T08:48:58;97500.56;;;5.70;66.65
38912;BME280;28444;48.056;14.408;2023-03-18T08:51:25;97497.59;;;5.82;66.97
38912;BME280;28444;48.056;14.408;2023-03-18T08:53:52;97490.00;;;5.88;66.88
38912;BME280;28444;48.056;14.408;2023-03-18T08:56:19;97491.03;;;5.98;65.46
38912;BME280;28444;48.056;14.408;2023-03-18T08:58:46;97486.91;;;6.05;64.94
38912;BME280;28444;48.056;14.408;2023-03-18T09:01:13;97497.81;;;6.12;65.43
38912;BME280;28444;48.056;14.408;2023-03-18T09:03:41;97498.06;;;6.22;64.80
38912;BME280;28444;48.056;14.408;2023-03-18T09:06:07;97495.06;;;6.33;65.06
38912;BME280;28444;48.056;14.408;2023-03-18T09:08:35;97494.75;;;6.44;63.84
38912;BME280;28444;48.056;14.408;2023-03-18T09:11:02;97499.31;;;6.49;63.87
38912;BME280;28444;48.056;14.408;2023-03-18T09:13:28;97493.00;;;6.55;63.71
38912;BME280;28444;48.056;14.408;2023-03-18T09:15:55;97487.44;;;6.68;63.37
38912;BME280;28444;48.056;14.408;2023-03-18T09:18:21;97492.56;;;6.79;63.01
38912;BME280;28444;48.056;14.408;2023-03-18T09:20:48;97487.16;;;6.87;63.89
38912;BME280;28444;48.056;14.408;2023-03-18T09:23:15;97493.69;;;6.91;62.86
38912;BME280;28444;48.056;14.408;2023-03-18T09:25:45;97491.91;;;6.94;62.56
38912;BME280;28444;48.056;14.408;2023-03-18T09:28:12;97493.38;;;7.03;63.48
38912;BME280;28444;48.056;14.408;2023-03-18T09:30:40;97493.75;;;7.07;63.01
38912;BME280;28444;48.056;14.408;2023-03-18T09:33:07;97493.25;;;7.16;63.24
38912;BME280;28444;48.056;14.408;2023-03-18T09:35:34;97497.78;;;7.21;63.73
38912;BME280;28444;48.056;14.408;2023-03-18T09:38:02;97492.19;;;7.27;63.07
38912;BME280;28444;48.056;14.408;2023-03-18T09:40:34;97489.09;;;7.38;63.54
38912;BME280;28444;48.056;14.408;2023-03-18T09:46:44;97490.22;;;7.65;62.28
38912;BME280;28444;48.056;14.408;2023-03-18T09:52:36;97480.06;;;7.81;62.30
38912;BME280;28444;48.056;14.408;2023-03-18T09:55:28;97484.59;;;7.86;63.33
38912;BME280;28444;48.056;14.408;2023-03-18T09:58:02;97477.00;;;7.85;63.12
38912;BME280;28444;48.056;14.408;2023-03-18T10:00:36;97476.06;;;7.90;63.53
38912;BME280;28444;48.056;14.408;2023-03-18T10:03:48;97483.31;;;8.03;63.78
38912;BME280;28444;48.056;14.408;2023-03-18T10:06:17;97475.50;;;8.07;63.95
38912;BME280;28444;48.056;14.408;2023-03-18T10:10:37;97469.50;;;8.16;63.13
38912;BME280;28444;48.056;14.408;2023-03-18T10:11:46;97469.69;;;8.18;62.40
38912;BME280;28444;48.056;14.408;2023-03-18T10:17:22;97470.56;;;8.43;62.89
38912;BME280;28444;48.056;14.408;2023-03-18T10:19:59;97472.16;;;8.54;62.81
38912;BME280;28444;48.056;14.408;2023-03-18T10:23:44;97474.09;;;8.69;61.67
38912;BME280;28444;48.056;14.408;2023-03-18T10:25:53;97468.81;;;8.79;63.16
38912;BME280;28444;48.056;14.408;2023-03-18T10:28:53;97468.44;;;8.82;62.65
38912;BME280;28444;48.056;14.408;2023-03-18T10:38:07;97465.34;;;9.11;62.75
38912;BME280;28444;48.056;14.408;2023-03-18T10:40:39;97461.47;;;9.22;62.43
38912;BME280;28444;48.056;14.408;2023-03-18T10:43:15;97454.13;;;9.32;63.20
38912;BME280;28444;48.056;14.408;2023-03-18T10:45:44;97449.84;;;9.46;62.20
38912;BME280;28444;48.056;14.408;2023-03-18T10:48:26;97449.31;;;9.48;62.71
38912;BME280;28444;48.056;14.408;2023-03-18T10:54:32;97450.56;;;9.72;62.92
38912;BME280;28444;48.056;14.408;2023-03-18T10:57:01;97454.13;;;9.82;62.14
38912;BME280;28444;48.056;14.408;2023-03-18T10:59:28;97445.28;;;9.91;62.21
38912;BME280;28444;48.056;14.408;2023-03-18T11:02:12;97442.34;;;9.97;61.77
38912;BME280;28444;48.056;14.408;2023-03-18T11:04:46;97447.00;;;10.04;61.64
38912;BME280;28444;48.056;14.408;2023-03-18T11:07:17;97445.31;;;10.08;62.20
38912;BME280;28444;48.056;14.408;2023-03-18T11:09:45;97434.91;;;10.32;62.11
38912;BME280;28444;48.056;14.408;2023-03-18T11:12:27;97435.78;;;10.34;62.66
38912;BME280;28444;48.056;14.408;2023-03-18T11:14:54;97424.13;;;10.34;62.28
38912;BME280;28444;48.056;14.408;2023-03-18T11:17:25;97427.13;;;10.46;61.95
38912;BME280;28444;48.056;14.408;2023-03-18T11:20:20;97423.09;;;10.47;62.55
38912;BME280;28444;48.056;14.408;2023-03-18T11:22:51;97412.75;;;10.72;61.43
38912;BME280;28444;48.056;14.408;2023-03-18T11:25:23;97414.41;;;10.85;61.90
38912;BME280;28444;48.056;14.408;2023-03-18T11:28:02;97409.47;;;11.01;61.41
38912;BME280;28444;48.056;14.408;2023-03-18T11:30:43;97417.25;;;11.04;62.17
38912;BME280;28444;48.056;14.408;2023-03-18T11:35:57;97414.41;;;11.12;61.45
38912;BME280;28444;48.056;14.408;2023-03-18T11:38:25;97408.22;;;11.12;60.74
38912;BME280;28444;48.056;14.408;2023-03-18T11:41:21;97402.47;;;11.17;60.07
38912;BME280;28444;48.056;14.408;2023-03-18T11:44:05;97403.06;;;11.25;59.52
38912;BME280;28444;48.056;14.408;2023-03-18T11:46:42;97395.78;;;11.38;60.68
38912;BME280;28444;48.056;14.408;2023-03-18T11:49:16;97401.25;;;11.38;59.85
38912;BME280;28444;48.056;14.408;2023-03-18T11:58:27;97388.03;;;11.44;59.82
38912;BME280;28444;48.056;14.408;2023-03-18T12:00:51;97382.81;;;11.38;59.27
38912;BME280;28444;48.056;14.408;2023-03-18T12:03:59;97381.97;;;11.45;60.19
38912;BME280;28444;48.056;14.408;2023-03-18T12:06:23;97376.94;;;11.51;59.47
38912;BME280;28444;48.056;14.408;2023-03-18T12:10:16;97370.03;;;11.60;59.64
38912;BME280;28444;48.056;14.408;2023-03-18T12:15:34;97370.34;;;11.74;58.96
38912;BME280;28444;48.056;14.408;2023-03-18T12:19:25;97367.19;;;11.77;60.11
38912;BME280;28444;48.056;14.408;2023-03-18T12:21:53;97366.47;;;11.77;59.43
38912;BME280;28444;48.056;14.408;2023-03-18T12:28:27;97363.78;;;11.96;59.45
38912;BME280;28444;48.056;14.408;2023-03-18T12:33:59;97349.50;;;12.17;59.81
38912;BME280;28444;48.056;14.408;2023-03-18T12:37:18;97358.00;;;12.21;58.81
38912;BME280;28444;48.056;14.408;2023-03-18T12:40:08;97355.09;;;12.39;58.39
38912;BME280;28444;48.056;14.408;2023-03-18T12:45:43;97353.03;;;12.49;57.66
38912;BME280;28444;48.056;14.408;2023-03-18T12:48:31;97346.28;;;12.50;57.84
38912;BME280;28444;48.056;14.408;2023-03-18T12:51:18;97348.44;;;12.51;59.09
38912;BME280;28444;48.056;14.408;2023-03-18T12:53:51;97348.56;;;12.53;58.92
38912;BME280;28444;48.056;14.408;2023-03-18T12:56:22;97342.66;;;12.57;58.47
38912;BME280;28444;48.056;14.408;2023-03-18T12:59:22;97350.00;;;12.64;58.42
38912;BME280;28444;48.056;14.408;2023-03-18T13:04:50;97349.06;;;12.81;58.35
38912;BME280;28444;48.056;14.408;2023-03-18T13:07:25;97342.41;;;12.94;57.84
38912;BME280;28444;48.056;14.408;2023-03-18T13:10:21;97338.75;;;13.01;58.01
38912;BME280;28444;48.056;14.408;2023-03-18T13:12:51;97337.00;;;13.06;58.17
38912;BME280;28444;48.056;14.408;2023-03-18T13:15:27;97337.16;;;13.08;58.84
38912;BME280;28444;48.056;14.408;2023-03-18T13:17:59;97337.00;;;13.06;58.52
38912;BME280;28444;48.056;14.408;2023-03-18T13:20:30;97342.06;;;12.99;57.56
38912;BME280;28444;48.056;14.408;2023-03-18T13:23:29;97345.56;;;13.00;58.52
38912;BME280;28444;48.056;14.408;2023-03-18T13:26:26;97338.56;;;13.09;58.35
38912;BME280;28444;48.056;14.408;2023-03-18T13:29:15;97337.00;;;13.06;58.02
38912;BME280;28444;48.056;14.408;2023-03-18T13:32:22;97336.59;;;12.99;57.99
38912;BME280;28444;48.056;14.408;2023-03-18T13:35:15;97336.09;;;13.13;58.08
38912;BME280;28444;48.056;14.408;2023-03-18T13:42:21;97332.63;;;13.12;58.62
38912;BME280;28444;48.056;14.408;2023-03-18T13:43:59;97322.53;;;13.15;58.93
38912;BME280;28444;48.056;14.408;2023-03-18T13:46:30;97320.34;;;13.13;58.76
38912;BME280;28444;48.056;14.408;2023-03-18T13:49:00;97325.09;;;13.22;57.74
38912;BME280;28444;48.056;14.408;2023-03-18T13:51:48;97311.00;;;13.38;56.24
38912;BME280;28444;48.056;14.408;2023-03-18T13:54:16;97313.94;;;13.30;57.58
38912;BME280;28444;48.056;14.408;2023-03-18T13:56:52;97313.38;;;13.22;58.68
38912;BME280;28444;48.056;14.408;2023-03-18T14:00:21;97306.88;;;13.27;57.75
38912;BME280;28444;48.056;14.408;2023-03-18T14:03:12;97305.72;;;13.20;56.83
38912;BME280;28444;48.056;14.408;2023-03-18T14:05:43;97308.19;;;13.16;58.80
38912;BME280;28444;48.056;14.408;2023-03-18T14:09:31;97311.53;;;13.15;58.28